Terminal Aerodrome Forecast
Issued by NWS

Home | Current Version | Previous Version | Text Only | Print | Product List | Glossary On
Versions: 1 2 3 4 5 6 7 8 9 10 11 12 13 14 15 16 17 18 19 20 21 22
000
FTUS43 KICT 221700
TAFRSL
TAF
KRSL 221720Z 2218/2318 18017G25KT P6SM VCTS SCT050CB BKN100
      TEMPO 2221/2224 5SM -SHRA OVC050
     FM230000 18012KT P6SM VCTS OVC050CB
      TEMPO 2300/2303 5SM -SHRA OVC050
     FM230300 21010KT P6SM BKN070
     FM231000 24005KT 2SM BR OVC008=

USA.gov is the U.S. government's official web portal to all federal, state and local government web resources and services.